ADDS METAR Data INFO
IDs: Format: Raw Decoded Include TAF

Data at: 0936 UTC 25 Jun 2018

KCBK 242335Z AUTO 31033G43KT 10SM 18/12 A3000 RMK AO2 PWINO
KCBK 242315Z AUTO 04009KT 10SM SCT050 SCT060 21/15 A2994 RMK AO2
KCBK 242255Z AUTO 06008KT 10SM SCT050 BKN060 22/15 A2993 RMK AO2
KCBK 242235Z AUTO 04007KT 10SM SCT041 BKN050 BKN060 22/15 A2993 RMK AO2
KCBK 242215Z AUTO 03009KT 10SM SCT035 OVC041 22/15 A2995 RMK AO2
KCBK 242155Z AUTO 03006KT 10SM SCT035 BKN041 BKN048 22/15 A2994 RMK AO2
KCBK 242135Z AUTO 03008KT 010V080 10SM SCT035 BKN041 BKN048 23/15 A2995 RMK AO2
KCBK 242115Z AUTO 32005KT 10SM BKN036 BKN042 BKN050 23/15 A2996 RMK AO2
KCBK 242055Z AUTO 32003KT 10SM BKN035 22/14 A2996 RMK AO2
KCBK 242035Z AUTO 00000KT 10SM BKN035 BKN100 22/14 A2996 RMK AO2
KCBK 242015Z AUTO 31003KT 10SM BKN033 BKN039 OVC100 22/15 A2997 RMK AO2
KCBK 241955Z AUTO 00000KT 10SM BKN033 BKN120 22/13 A2997 RMK AO2
KCBK 241935Z AUTO 00000KT 10SM SCT120 22/13 A2997 RMK AO2
KCBK 241915Z AUTO 00000KT 10SM BKN095 21/13 A2998 RMK AO2
KCBK 241855Z AUTO 00000KT 10SM OVC095 21/13 A2998 RMK AO2
KCBK 241835Z AUTO 00000KT 10SM OVC095 21/13 A2998 RMK AO2
KCBK 241815Z AUTO 13006KT 10SM SCT030 OVC095 21/13 A2999 RMK AO2
KCBK 241755Z AUTO 11005KT 10SM SCT030 BKN095 21/13 A2998 RMK AO2
KCBK 241735Z AUTO 00000KT 10SM SCT026 BKN095 21/13 A2999 RMK AO2
KCBK 241715Z AUTO 00000KT 10SM SCT026 BKN095 21/14 A2999 RMK AO2
KCBK 241655Z AUTO 33004KT 10SM SCT090 20/13 A2998 RMK AO2
KCBK 241635Z AUTO 00000KT 10SM SCT100 20/13 A2997 RMK AO2
KCBK 241615Z AUTO 30004KT 10SM BKN110 18/14 A2997 RMK AO2
KCBK 241555Z AUTO 30005KT 10SM SCT042 SCT065 BKN110 17/15 A2995 RMK AO2
KCBK 241535Z AUTO 32004KT 10SM -RA BKN100 BKN120 17/14 A2995 RMK AO2
KCBK 241515Z AUTO 29006KT 10SM SCT110 17/13 A2995 RMK AO2
KCBK 241455Z AUTO 31003KT 10SM SCT100 17/14 A2995 RMK AO2
KCBK 241435Z AUTO 30004KT 10SM SCT100 16/15 A2995 RMK AO2
KCBK 241415Z AUTO 32006KT 10SM SCT027 SCT050 SCT070 15/15 A2995 RMK AO2
KCBK 241355Z AUTO 32006KT 10SM -RA SCT024 SCT070 OVC110 15/15 A2996 RMK AO2
KCBK 241335Z AUTO 32006KT 10SM -RA SCT024 SCT050 BKN110 15/15 A2995 RMK AO2
KCBK 241315Z AUTO 31006KT 10SM SCT050 SCT065 BKN110 15/15 A2993 RMK AO2
KCBK 241255Z AUTO 30006KT 10SM BKN110 15/14 A2991 RMK AO2
KCBK 241235Z AUTO 15010KT 10SM -RA SCT070 SCT090 BKN110 15/15 A2990 RMK AO2
KCBK 241215Z AUTO 11012KT 10SM SCT080 BKN100 OVC120 15/14 A2989 RMK AO2
KCBK 241155Z AUTO 12012G17KT 10SM -RA SCT085 OVC110 15/15 A2990 RMK AO2
KCBK 241135Z AUTO 08017KT 10SM -RA SCT090 OVC110 15/14 A2989 RMK AO2
KCBK 241115Z AUTO 08018G26KT 10SM -RA SCT060 SCT080 OVC110 15/15 A2991 RMK AO2
KCBK 241055Z AUTO 09014KT 7SM -RA SCT060 BKN070 OVC090 15/15 A2995 RMK AO2
KCBK 241035Z AUTO 06007KT 7SM RA SCT060 SCT070 OVC090 15/15 A2999 RMK AO2
KCBK 241015Z AUTO 00000KT 10SM -RA SCT050 SCT070 OVC090 15/13 A3000 RMK AO2
KCBK 240955Z AUTO 32015G24KT 10SM RA BKN050 BKN100 16/13 A2999 RMK AO2
KCBK 240935Z AUTO 29015KT 10SM CLR 15/12 A2997 RMK AO2
KCBK 240915Z AUTO 10008KT 10SM CLR 15/12 A2985 RMK AO2
KCBK 240855Z AUTO 08008KT 10SM CLR 15/12 A2982 RMK AO2
KCBK 240835Z AUTO 09009KT 10SM CLR 15/12 A2979 RMK AO2
KCBK 240815Z AUTO 11006KT 10SM CLR 16/12 A2984 RMK AO2
KCBK 240755Z AUTO 08008KT 10SM CLR 16/12 A2982 RMK AO2
KCBK 240735Z AUTO 06008KT 10SM CLR 16/12 A2985 RMK AO2
KCBK 240715Z AUTO 05010KT 10SM CLR 16/12 A2985 RMK AO2
KCBK 240655Z AUTO 02009G20KT 330V040 10SM CLR 16/12 A2986 RMK AO2
KCBK 240635Z AUTO 00000KT 10SM CLR 16/12 A2983 RMK AO2
KCBK 240615Z AUTO 17003KT 10SM CLR 16/12 A2982 RMK AO2
KCBK 240555Z AUTO 14005KT 10SM CLR 16/12 A2983 RMK AO2
KCBK 240535Z AUTO 14004KT 10SM CLR 17/11 A2983 RMK AO2
KCBK 240515Z AUTO 18008KT 10SM CLR 17/11 A2982 RMK AO2
KCBK 240455Z AUTO 16008KT 10SM CLR 17/11 A2981 RMK AO2
KCBK 240435Z AUTO 18010G15KT 10SM CLR 18/12 A2982 RMK AO2
KCBK 240415Z AUTO 16011KT 10SM CLR 17/13 A2981 RMK AO2
KCBK 240355Z AUTO 14005KT 10SM CLR 16/13 A2982 RMK AO2
KCBK 240335Z AUTO 13008KT 10SM CLR 17/13 A2983 RMK AO2
KCBK 240315Z AUTO 13009KT 10SM CLR 16/13 A2982 RMK AO2
KCBK 240255Z AUTO 14008KT 10SM CLR 17/13 A2983 RMK AO2
KCBK 240235Z AUTO 14010KT 10SM CLR 17/13 A2983 RMK AO2
KCBK 240215Z AUTO 13010KT 10SM CLR 17/12 A2983 RMK AO2
KCBK 240155Z AUTO 12012KT 10SM CLR 18/12 A2984 RMK AO2
KCBK 240135Z AUTO 11008KT 10SM CLR 17/13 A2983 RMK AO2
KCBK 240115Z AUTO 11011KT 10SM CLR 17/13 A2981 RMK AO2
KCBK 240055Z AUTO 10011KT 10SM CLR 18/14 A2980 RMK AO2
KCBK 240035Z AUTO 10011KT 10SM CLR 18/14 A2983 RMK AO2
KCBK 240015Z AUTO 10011G18KT 10SM SCT047 SCT050 SCT070 18/13 A2984 RMK AO2
KCBK 232355Z AUTO 08013KT 10SM SCT055 SCT070 SCT090 17/13 A2984 RMK AO2
KCBK 232335Z AUTO 05018G23KT 10SM SCT060 BKN080 BKN100 19/15 A2982 RMK AO2
KCBK 232315Z AUTO 04014G17KT 10SM BKN060 BKN070 BKN095 19/15 A2982 RMK AO2
KCBK 232255Z AUTO 12009KT 10SM SCT110 20/15 A2982 RMK AO2
KCBK 232235Z AUTO 15010KT 10SM SCT110 18/15 A2981 RMK AO2
KCBK 232215Z AUTO 13014KT 10SM SCT048 SCT060 SCT070 18/15 A2981 RMK AO2
KCBK 232155Z AUTO 14008KT 10SM SCT060 BKN070 BKN095 20/15 A2982 RMK AO2